sensor_id;sensor_type;location;lat;lon;timestamp;pressure;altitude;pressure_sealevel;temperature;humidity
9717;BME280;4897;43.570;27.832;2023-02-13T00:01:22;100888.81;;;-1.56;100.00
9717;BME280;4897;43.570;27.832;2023-02-13T00:03:49;100985.44;;;-1.07;100.00
9717;BME280;4897;43.570;27.832;2023-02-13T00:06:16;101008.91;;;-0.89;100.00
9717;BME280;4897;43.570;27.832;2023-02-13T00:08:44;101025.50;;;-0.87;100.00
9717;BME280;4897;43.570;27.832;2023-02-13T00:11:11;101029.09;;;-0.97;100.00
9717;BME280;4897;43.570;27.832;2023-02-13T00:13:37;101031.00;;;-1.11;100.00
9717;BME280;4897;43.570;27.832;2023-02-13T00:16:05;101042.28;;;-1.04;100.00
9717;BME280;4897;43.570;27.832;2023-02-13T00:18:34;101032.75;;;-1.16;100.00
9717;BME280;4897;43.570;27.832;2023-02-13T00:21:03;101050.25;;;-1.15;100.00
9717;BME280;4897;43.570;27.832;2023-02-13T00:23:31;100981.31;;;-1.39;100.00
9717;BME280;4897;43.570;27.832;2023-02-13T00:26:04;101045.03;;;-1.18;100.00
9717;BME280;4897;43.570;27.832;2023-02-13T00:28:31;101008.50;;;-1.45;100.00
9717;BME280;4897;43.570;27.832;2023-02-13T00:31:03;101041.56;;;-1.23;100.00
9717;BME280;4897;43.570;27.832;2023-02-13T00:33:30;101044.16;;;-1.18;100.00
9717;BME280;4897;43.570;27.832;2023-02-13T00:36:02;101008.47;;;-1.43;100.00
9717;BME280;4897;43.570;27.832;2023-02-13T00:38:29;101000.66;;;-1.49;100.00
9717;BME280;4897;43.570;27.832;2023-02-13T00:44:33;101040.94;;;-1.59;100.00
9717;BME280;4897;43.570;27.832;2023-02-13T00:47:00;101044.41;;;-1.57;100.00
9717;BME280;4897;43.570;27.832;2023-02-13T00:49:27;101025.31;;;-1.78;100.00
9717;BME280;4897;43.570;27.832;2023-02-13T00:51:54;101048.81;;;-1.61;100.00
9717;BME280;4897;43.570;27.832;2023-02-13T00:54:21;101053.22;;;-1.71;100.00
9717;BME280;4897;43.570;27.832;2023-02-13T00:56:48;101048.00;;;-1.77;100.00
9717;BME280;4897;43.570;27.832;2023-02-13T00:59:15;101045.38;;;-1.72;100.00
9717;BME280;4897;43.570;27.832;2023-02-13T01:01:44;101061.16;;;-1.78;100.00
9717;BME280;4897;43.570;27.832;2023-02-13T01:04:11;101036.75;;;-1.92;100.00
9717;BME280;4897;43.570;27.832;2023-02-13T01:06:38;101049.88;;;-1.97;100.00
9717;BME280;4897;43.570;27.832;2023-02-13T01:09:04;101028.97;;;-2.13;100.00
9717;BME280;4897;43.570;27.832;2023-02-13T01:11:31;100994.97;;;-2.37;100.00
9717;BME280;4897;43.570;27.832;2023-02-13T01:13:58;101037.72;;;-2.16;100.00
9717;BME280;4897;43.570;27.832;2023-02-13T01:16:25;101029.00;;;-2.19;100.00
9717;BME280;4897;43.570;27.832;2023-02-13T01:18:53;101026.38;;;-2.24;100.00
9717;BME280;4897;43.570;27.832;2023-02-13T01:21:21;101044.69;;;-2.16;100.00
9717;BME280;4897;43.570;27.832;2023-02-13T01:23:48;101024.66;;;-2.32;100.00
9717;BME280;4897;43.570;27.832;2023-02-13T01:26:17;101042.97;;;-2.20;100.00
9717;BME280;4897;43.570;27.832;2023-02-13T01:28:45;101053.47;;;-2.26;100.00
9717;BME280;4897;43.570;27.832;2023-02-13T01:31:11;101058.72;;;-2.35;100.00
9717;BME280;4897;43.570;27.832;2023-02-13T01:33:38;101052.63;;;-2.37;100.00
9717;BME280;4897;43.570;27.832;2023-02-13T01:36:08;101050.91;;;-2.45;100.00
9717;BME280;4897;43.570;27.832;2023-02-13T01:38:36;101043.94;;;-2.64;100.00
9717;BME280;4897;43.570;27.832;2023-02-13T01:41:03;101042.22;;;-2.71;100.00
9717;BME280;4897;43.570;27.832;2023-02-13T01:43:45;101058.78;;;-2.60;100.00
9717;BME280;4897;43.570;27.832;2023-02-13T01:46:15;101025.66;;;-2.74;100.00
9717;BME280;4897;43.570;27.832;2023-02-13T01:48:43;101046.59;;;-2.74;100.00
9717;BME280;4897;43.570;27.832;2023-02-13T01:51:17;101048.31;;;-2.63;100.00
9717;BME280;4897;43.570;27.832;2023-02-13T01:53:47;101020.38;;;-2.67;100.00
9717;BME280;4897;43.570;27.832;2023-02-13T01:56:19;101043.09;;;-2.61;100.00
9717;BME280;4897;43.570;27.832;2023-02-13T01:58:48;101044.81;;;-2.60;100.00
9717;BME280;4897;43.570;27.832;2023-02-13T02:01:16;101014.28;;;-2.69;100.00
9717;BME280;4897;43.570;27.832;2023-02-13T02:03:46;101045.66;;;-2.48;100.00
9717;BME280;4897;43.570;27.832;2023-02-13T02:06:18;101031.72;;;-2.56;100.00
9717;BME280;4897;43.570;27.832;2023-02-13T02:08:50;101021.25;;;-2.65;100.00
9717;BME280;4897;43.570;27.832;2023-02-13T02:11:23;100998.63;;;-2.93;100.00
9717;BME280;4897;43.570;27.832;2023-02-13T02:13:52;100999.50;;;-3.07;100.00
9717;BME280;4897;43.570;27.832;2023-02-13T02:16:19;101016.06;;;-3.04;100.00
9717;BME280;4897;43.570;27.832;2023-02-13T02:18:46;101037.00;;;-2.89;100.00
9717;BME280;4897;43.570;27.832;2023-02-13T02:24:40;101034.41;;;-2.95;100.00
9717;BME280;4897;43.570;27.832;2023-02-13T02:27:26;101048.34;;;-2.94;100.00
9717;BME280;4897;43.570;27.832;2023-02-13T02:30:41;101051.81;;;-3.00;100.00
9717;BME280;4897;43.570;27.832;2023-02-13T02:33:25;101055.31;;;-2.98;100.00
9717;BME280;4897;43.570;27.832;2023-02-13T02:36:04;101067.56;;;-2.98;100.00
9717;BME280;4897;43.570;27.832;2023-02-13T02:38:49;101035.25;;;-3.25;100.00
9717;BME280;4897;43.570;27.832;2023-02-13T02:41:27;101074.50;;;-3.12;100.00
9717;BME280;4897;43.570;27.832;2023-02-13T02:44:20;101073.63;;;-3.19;100.00
9717;BME280;4897;43.570;27.832;2023-02-13T02:47:00;101078.84;;;-3.34;100.00
9717;BME280;4897;43.570;27.832;2023-02-13T02:49:58;101077.94;;;-3.38;100.00
9717;BME280;4897;43.570;27.832;2023-02-13T02:52:32;101081.47;;;-3.33;100.00
9717;BME280;4897;43.570;27.832;2023-02-13T02:55:10;101068.38;;;-3.36;100.00
9717;BME280;4897;43.570;27.832;2023-02-13T02:57:41;101074.50;;;-3.28;100.00
9717;BME280;4897;43.570;27.832;2023-02-13T03:00:28;101078.88;;;-3.22;100.00
9717;BME280;4897;43.570;27.832;2023-02-13T03:03:17;101054.44;;;-3.42;100.00
9717;BME280;4897;43.570;27.832;2023-02-13T03:06:06;101059.69;;;-3.24;100.00
9717;BME280;4897;43.570;27.832;2023-02-13T03:08:41;101024.75;;;-3.50;100.00
9717;BME280;4897;43.570;27.832;2023-02-13T03:11:26;101063.16;;;-3.22;100.00
9717;BME280;4897;43.570;27.832;2023-02-13T03:14:14;101076.22;;;-3.30;100.00
9717;BME280;4897;43.570;27.832;2023-02-13T03:16:42;101064.88;;;-3.27;100.00
9717;BME280;4897;43.570;27.832;2023-02-13T03:19:34;101073.63;;;-3.22;100.00
9717;BME280;4897;43.570;27.832;2023-02-13T03:22:28;101075.38;;;-3.36;100.00
9717;BME280;4897;43.570;27.832;2023-02-13T03:25:07;101063.13;;;-3.55;100.00
9717;BME280;4897;43.570;27.832;2023-02-13T03:27:43;101077.09;;;-3.38;100.00
9717;BME280;4897;43.570;27.832;2023-02-13T03:30:37;101059.63;;;-3.48;100.00
9717;BME280;4897;43.570;27.832;2023-02-13T03:33:19;101079.69;;;-3.52;100.00
9717;BME280;4897;43.570;27.832;2023-02-13T03:35:55;101069.22;;;-3.55;100.00
9717;BME280;4897;43.570;27.832;2023-02-13T03:38:46;101075.31;;;-3.48;100.00
9717;BME280;4897;43.570;27.832;2023-02-13T03:41:21;101070.06;;;-3.66;100.00
9717;BME280;4897;43.570;27.832;2023-02-13T03:43:58;101027.28;;;-3.97;100.00
9717;BME280;4897;43.570;27.832;2023-02-13T03:46:30;101073.53;;;-3.72;100.00
9717;BME280;4897;43.570;27.832;2023-02-13T03:49:01;101010.53;;;-4.40;100.00
9717;BME280;4897;43.570;27.832;2023-02-13T03:51:50;101095.22;;;-3.91;100.00
9717;BME280;4897;43.570;27.832;2023-02-13T03:54:24;100824.00;;;-5.29;100.00
9717;BME280;4897;43.570;27.832;2023-02-13T03:57:11;101068.25;;;-3.88;100.00
9717;BME280;4897;43.570;27.832;2023-02-13T03:59:57;101070.75;;;-4.07;100.00
9717;BME280;4897;43.570;27.832;2023-02-13T04:02:34;101001.78;;;-4.57;100.00
9717;BME280;4897;43.570;27.832;2023-02-13T04:05:07;101069.88;;;-4.15;100.00
9717;BME280;4897;43.570;27.832;2023-02-13T04:07:34;101025.47;;;-4.15;100.00
9717;BME280;4897;43.570;27.832;2023-02-13T04:10:05;101065.66;;;-3.84;100.00
9717;BME280;4897;43.570;27.832;2023-02-13T04:12:39;101076.06;;;-3.85;100.00
9717;BME280;4897;43.570;27.832;2023-02-13T04:15:13;101079.63;;;-3.68;100.00
9717;BME280;4897;43.570;27.832;2023-02-13T04:17:44;101067.44;;;-3.72;100.00
9717;BME280;4897;43.570;27.832;2023-02-13T04:20:13;101082.25;;;-3.71;100.00
9717;BME280;4897;43.570;27.832;2023-02-13T04:22:42;101064.72;;;-3.93;100.00
9717;BME280;4897;43.570;27.832;2023-02-13T04:25:12;101019.34;;;-4.26;100.00
9717;BME280;4897;43.570;27.832;2023-02-13T04:27:39;101082.16;;;-3.92;100.00
9717;BME280;4897;43.570;27.832;2023-02-13T04:30:07;101083.91;;;-3.91;100.00
9717;BME280;4897;43.570;27.832;2023-02-13T04:32:34;101091.69;;;-4.03;100.00
9717;BME280;4897;43.570;27.832;2023-02-13T04:35:01;101091.66;;;-4.11;100.00
9717;BME280;4897;43.570;27.832;2023-02-13T04:37:28;101090.81;;;-4.03;100.00
9717;BME280;4897;43.570;27.832;2023-02-13T04:39:55;101075.06;;;-4.19;100.00
9717;BME280;4897;43.570;27.832;2023-02-13T04:42:24;101094.22;;;-4.22;100.00
9717;BME280;4897;43.570;27.832;2023-02-13T04:44:50;101098.41;;;-4.46;100.00
9717;BME280;4897;43.570;27.832;2023-02-13T04:47:17;101097.59;;;-4.38;100.00
9717;BME280;4897;43.570;27.832;2023-02-13T04:49:44;101103.66;;;-4.43;100.00
9717;BME280;4897;43.570;27.832;2023-02-13T04:52:12;101094.88;;;-4.57;100.00
9717;BME280;4897;43.570;27.832;2023-02-13T04:54:40;101088.00;;;-4.45;100.00
9717;BME280;4897;43.570;27.832;2023-02-13T04:57:07;101081.88;;;-4.44;100.00
9717;BME280;4897;43.570;27.832;2023-02-13T04:59:35;101089.72;;;-4.45;100.00
9717;BME280;4897;43.570;27.832;2023-02-13T05:02:02;101083.59;;;-4.52;100.00
9717;BME280;4897;43.570;27.832;2023-02-13T05:04:29;101059.13;;;-4.63;100.00
9717;BME280;4897;43.570;27.832;2023-02-13T05:06:56;101089.78;;;-4.33;100.00
9717;BME280;4897;43.570;27.832;2023-02-13T05:09:23;101087.06;;;-4.50;100.00
9717;BME280;4897;43.570;27.832;2023-02-13T05:11:51;101094.94;;;-4.47;100.00
9717;BME280;4897;43.570;27.832;2023-02-13T05:14:18;101097.44;;;-4.62;100.00
9717;BME280;4897;43.570;27.832;2023-02-13T05:16:47;101088.81;;;-4.55;100.00
9717;BME280;4897;43.570;27.832;2023-02-13T05:19:14;101052.91;;;-4.83;100.00
9717;BME280;4897;43.570;27.832;2023-02-13T05:21:41;101097.56;;;-4.47;100.00
9717;BME280;4897;43.570;27.832;2023-02-13T05:24:25;101062.59;;;-4.71;100.00
9717;BME280;4897;43.570;27.832;2023-02-13T05:26:52;101088.72;;;-4.61;100.00
9717;BME280;4897;43.570;27.832;2023-02-13T05:29:19;101113.19;;;-4.50;100.00
9717;BME280;4897;43.570;27.832;2023-02-13T05:31:49;101118.44;;;-4.44;100.00
9717;BME280;4897;43.570;27.832;2023-02-13T05:34:17;101111.50;;;-4.45;100.00
9717;BME280;4897;43.570;27.832;2023-02-13T05:36:44;101114.97;;;-4.43;100.00
9717;BME280;4897;43.570;27.832;2023-02-13T05:39:11;101115.94;;;-4.27;100.00
9717;BME280;4897;43.570;27.832;2023-02-13T05:41:39;101074.94;;;-4.42;100.00
9717;BME280;4897;43.570;27.832;2023-02-13T05:44:07;101044.44;;;-4.52;100.00
9717;BME280;4897;43.570;27.832;2023-02-13T05:46:35;101112.56;;;-4.10;100.00
9717;BME280;4897;43.570;27.832;2023-02-13T05:49:04;101026.22;;;-4.40;100.00
9717;BME280;4897;43.570;27.832;2023-02-13T05:51:31;101108.31;;;-3.83;100.00
9717;BME280;4897;43.570;27.832;2023-02-13T05:53:58;101092.66;;;-3.77;100.00
9717;BME280;4897;43.570;27.832;2023-02-13T05:56:25;101092.66;;;-3.77;100.00
9717;BME280;4897;43.570;27.832;2023-02-13T05:58:53;101110.16;;;-3.67;100.00
9717;BME280;4897;43.570;27.832;2023-02-13T06:01:20;101091.00;;;-3.57;100.00
9717;BME280;4897;43.570;27.832;2023-02-13T06:03:48;101077.00;;;-3.68;100.00
9717;BME280;4897;43.570;27.832;2023-02-13T06:06:16;101099.72;;;-3.46;100.00
9717;BME280;4897;43.570;27.832;2023-02-13T06:08:44;101112.84;;;-3.39;100.00
9717;BME280;4897;43.570;27.832;2023-02-13T06:11:11;101083.19;;;-3.47;100.00
9717;BME280;4897;43.570;27.832;2023-02-13T06:13:38;101120.72;;;-3.19;100.00
9717;BME280;4897;43.570;27.832;2023-02-13T06:16:05;101084.97;;;-3.18;100.00
9717;BME280;4897;43.570;27.832;2023-02-13T06:18:33;101123.38;;;-2.80;100.00
9717;BME280;4897;43.570;27.832;2023-02-13T06:21:00;101119.00;;;-2.81;100.00
9717;BME280;4897;43.570;27.832;2023-02-13T06:23:29;101123.38;;;-2.68;100.00
9717;BME280;4897;43.570;27.832;2023-02-13T06:26:00;101056.19;;;-2.96;100.00
9717;BME280;4897;43.570;27.832;2023-02-13T06:28:27;101121.66;;;-2.57;100.00
9717;BME280;4897;43.570;27.832;2023-02-13T06:30:53;101133.81;;;-2.48;100.00
9717;BME280;4897;43.570;27.832;2023-02-13T06:33:20;101100.66;;;-2.54;100.00
9717;BME280;4897;43.570;27.832;2023-02-13T06:35:47;101125.97;;;-2.36;100.00
9717;BME280;4897;43.570;27.832;2023-02-13T06:38:17;101104.13;;;-2.30;100.00
9717;BME280;4897;43.570;27.832;2023-02-13T06:40:46;101071.00;;;-2.62;100.00
9717;BME280;4897;43.570;27.832;2023-02-13T06:43:13;101102.34;;;-2.16;100.00
9717;BME280;4897;43.570;27.832;2023-02-13T06:45:40;101091.84;;;-2.09;100.00
9717;BME280;4897;43.570;27.832;2023-02-13T06:48:07;101072.69;;;-2.35;100.00
9717;BME280;4897;43.570;27.832;2023-02-13T06:50:35;101115.44;;;-2.10;100.00
9717;BME280;4897;43.570;27.832;2023-02-13T06:53:02;101109.34;;;-2.11;100.00
9717;BME280;4897;43.570;27.832;2023-02-13T06:55:29;101111.94;;;-2.12;100.00
9717;BME280;4897;43.570;27.832;2023-02-13T06:57:57;101085.72;;;-2.06;100.00
9717;BME280;4897;43.570;27.832;2023-02-13T07:00:24;101082.22;;;-2.05;100.00
9717;BME280;4897;43.570;27.832;2023-02-13T07:02:51;101117.94;;;-1.70;100.00
9717;BME280;4897;43.570;27.832;2023-02-13T07:05:19;101104.81;;;-1.65;100.00
9717;BME280;4897;43.570;27.832;2023-02-13T07:07:46;101083.78;;;-1.62;100.00
9717;BME280;4897;43.570;27.832;2023-02-13T07:10:13;101123.97;;;-1.51;100.00
9717;BME280;4897;43.570;27.832;2023-02-13T07:12:40;101076.66;;;-1.36;100.00
9717;BME280;4897;43.570;27.832;2023-02-13T07:15:09;101012.81;;;-1.38;100.00
9717;BME280;4897;43.570;27.832;2023-02-13T07:17:37;100871.50;;;-1.83;100.00
9717;BME280;4897;43.570;27.832;2023-02-13T07:20:05;101066.56;;;0.07;100.00
9717;BME280;4897;43.570;27.832;2023-02-13T07:22:33;101068.53;;;0.58;100.00
9717;BME280;4897;43.570;27.832;2023-02-13T07:25:00;101064.16;;;1.14;100.00
9717;BME280;4897;43.570;27.832;2023-02-13T07:27:27;101069.03;;;1.85;100.00
9717;BME280;4897;43.570;27.832;2023-02-13T07:29:55;101047.69;;;1.97;100.00
9717;BME280;4897;43.570;27.832;2023-02-13T07:32:23;101076.28;;;2.18;100.00
9717;BME280;4897;43.570;27.832;2023-02-13T07:34:51;101061.28;;;2.20;100.00
9717;BME280;4897;43.570;27.832;2023-02-13T07:37:17;101062.78;;;2.33;100.00
9717;BME280;4897;43.570;27.832;2023-02-13T07:39:44;101072.50;;;2.30;100.00
9717;BME280;4897;43.570;27.832;2023-02-13T07:42:11;101074.09;;;2.38;100.00
9717;BME280;4897;43.570;27.832;2023-02-13T07:44:38;101062.56;;;2.42;100.00
9717;BME280;4897;43.570;27.832;2023-02-13T07:47:05;101062.63;;;2.39;100.00
9717;BME280;4897;43.570;27.832;2023-02-13T07:49:34;101040.63;;;2.39;100.00
9717;BME280;4897;43.570;27.832;2023-02-13T07:52:01;101068.88;;;2.74;100.00
9717;BME280;4897;43.570;27.832;2023-02-13T07:54:29;101064.78;;;2.99;100.00
9717;BME280;4897;43.570;27.832;2023-02-13T07:56:56;101054.31;;;2.96;100.00
9717;BME280;4897;43.570;27.832;2023-02-13T07:59:23;101043.50;;;3.05;100.00
9717;BME280;4897;43.570;27.832;2023-02-13T08:01:50;101035.69;;;3.34;100.00
9717;BME280;4897;43.570;27.832;2023-02-13T08:04:17;101072.84;;;3.63;100.00
9717;BME280;4897;43.570;27.832;2023-02-13T08:06:45;101063.72;;;3.41;100.00
9717;BME280;4897;43.570;27.832;2023-02-13T08:09:17;101069.56;;;3.54;100.00
9717;BME280;4897;43.570;27.832;2023-02-13T08:12:03;101069.34;;;3.29;100.00
9717;BME280;4897;43.570;27.832;2023-02-13T08:14:30;101067.44;;;3.34;100.00
9717;BME280;4897;43.570;27.832;2023-02-13T08:16:58;101062.69;;;3.48;100.00
9717;BME280;4897;43.570;27.832;2023-02-13T08:19:26;101074.63;;;3.63;100.00
9717;BME280;4897;43.570;27.832;2023-02-13T08:21:55;101054.81;;;3.45;100.00
9717;BME280;4897;43.570;27.832;2023-02-13T08:24:22;101071.72;;;3.72;100.00
9717;BME280;4897;43.570;27.832;2023-02-13T08:26:49;101063.09;;;3.65;100.00
9717;BME280;4897;43.570;27.832;2023-02-13T08:29:16;101074.09;;;3.50;100.00
9717;BME280;4897;43.570;27.832;2023-02-13T08:31:44;101076.47;;;3.59;100.00
9717;BME280;4897;43.570;27.832;2023-02-13T08:34:10;101040.81;;;3.40;100.00
9717;BME280;4897;43.570;27.832;2023-02-13T08:36:37;101067.00;;;3.51;100.00
9717;BME280;4897;43.570;27.832;2023-02-13T08:39:08;101064.66;;;3.72;100.00
9717;BME280;4897;43.570;27.832;2023-02-13T08:41:35;101052.69;;;3.91;100.00
9717;BME280;4897;43.570;27.832;2023-02-13T08:44:02;101064.84;;;4.28;100.00
9717;BME280;4897;43.570;27.832;2023-02-13T08:46:29;101059.06;;;4.15;100.00
9717;BME280;4897;43.570;27.832;2023-02-13T08:48:56;101054.44;;;4.22;100.00
9717;BME280;4897;43.570;27.832;2023-02-13T08:51:23;101053.28;;;4.61;100.00
9717;BME280;4897;43.570;27.832;2023-02-13T08:53:50;101055.59;;;4.71;100.00
9717;BME280;4897;43.570;27.832;2023-02-13T08:56:18;101054.78;;;4.40;100.00
9717;BME280;4897;43.570;27.832;2023-02-13T08:58:47;101043.00;;;4.78;100.00
9717;BME280;4897;43.570;27.832;2023-02-13T09:01:15;101009.63;;;4.72;98.33
9717;BME280;4897;43.570;27.832;2023-02-13T09:03:42;101040.84;;;5.44;91.03
9717;BME280;4897;43.570;27.832;2023-02-13T09:06:09;101024.97;;;6.17;83.92
9717;BME280;4897;43.570;27.832;2023-02-13T09:08:36;101000.78;;;7.33;71.14
9717;BME280;4897;43.570;27.832;2023-02-13T09:11:03;100999.06;;;9.39;57.94
9717;BME280;4897;43.570;27.832;2023-02-13T09:13:33;101019.31;;;9.95;53.29
9717;BME280;4897;43.570;27.832;2023-02-13T09:16:03;101007.25;;;10.20;52.43
9717;BME280;4897;43.570;27.832;2023-02-13T09:18:31;101023.88;;;9.06;54.80
9717;BME280;4897;43.570;27.832;2023-02-13T09:20:59;100995.41;;;9.06;53.96
9717;BME280;4897;43.570;27.832;2023-02-13T09:23:29;100936.22;;;8.62;52.52
9717;BME280;4897;43.570;27.832;2023-02-13T09:25:58;100979.72;;;9.68;50.45
9717;BME280;4897;43.570;27.832;2023-02-13T09:28:29;100967.94;;;10.54;48.21
9717;BME280;4897;43.570;27.832;2023-02-13T09:31:04;100986.13;;;12.41;43.88
9717;BME280;4897;43.570;27.832;2023-02-13T09:33:31;100992.53;;;11.82;44.09
9717;BME280;4897;43.570;27.832;2023-02-13T09:36:05;100973.53;;;11.41;43.49
9717;BME280;4897;43.570;27.832;2023-02-13T09:38:32;100979.41;;;12.34;42.51
9717;BME280;4897;43.570;27.832;2023-02-13T09:41:02;100961.94;;;13.61;39.78
9717;BME280;4897;43.570;27.832;2023-02-13T09:43:33;100958.31;;;14.98;38.37
9717;BME280;4897;43.570;27.832;2023-02-13T09:46:10;100952.28;;;14.34;38.00
9717;BME280;4897;43.570;27.832;2023-02-13T09:48:40;100960.31;;;13.46;38.52
9717;BME280;4897;43.570;27.832;2023-02-13T09:51:13;100932.88;;;14.78;37.58
9717;BME280;4897;43.570;27.832;2023-02-13T09:53:46;100929.44;;;15.47;37.17
9717;BME280;4897;43.570;27.832;2023-02-13T09:56:17;100950.44;;;16.99;35.17
9717;BME280;4897;43.570;27.832;2023-02-13T09:58:48;100948.53;;;17.74;34.40
9717;BME280;4897;43.570;27.832;2023-02-13T10:01:25;100953.31;;;17.81;33.64
9717;BME280;4897;43.570;27.832;2023-02-13T10:04:23;100911.88;;;18.51;31.49
9717;BME280;4897;43.570;27.832;2023-02-13T10:06:57;100924.38;;;18.82;31.46
9717;BME280;4897;43.570;27.832;2023-02-13T10:09:37;100930.50;;;17.63;31.65
9717;BME280;4897;43.570;27.832;2023-02-13T10:15:14;100927.13;;;16.87;32.74
9717;BME280;4897;43.570;27.832;2023-02-13T10:17:44;100930.38;;;17.12;32.41
9717;BME280;4897;43.570;27.832;2023-02-13T10:20:24;100886.19;;;15.60;33.57
9717;BME280;4897;43.570;27.832;2023-02-13T10:22:55;100922.94;;;15.50;34.54
9717;BME280;4897;43.570;27.832;2023-02-13T10:25:26;100929.28;;;15.25;35.00
9717;BME280;4897;43.570;27.832;2023-02-13T10:27:56;100929.16;;;15.50;35.23
9717;BME280;4897;43.570;27.832;2023-02-13T10:30:27;100909.69;;;15.23;35.74
9717;BME280;4897;43.570;27.832;2023-02-13T10:32:59;100922.41;;;15.10;35.96
9717;BME280;4897;43.570;27.832;2023-02-13T10:35:52;100964.44;;;15.00;36.35
9717;BME280;4897;43.570;27.832;2023-02-13T10:38:23;100921.59;;;15.32;36.61
9717;BME280;4897;43.570;27.832;2023-02-13T10:41:02;100909.38;;;15.73;36.39
9717;BME280;4897;43.570;27.832;2023-02-13T10:43:37;100899.56;;;15.83;36.19
9717;BME280;4897;43.570;27.832;2023-02-13T10:46:13;100898.00;;;17.22;34.44
9717;BME280;4897;43.570;27.832;2023-02-13T10:48:58;100898.19;;;15.56;36.48
9717;BME280;4897;43.570;27.832;2023-02-13T10:51:32;100917.44;;;13.83;39.12
9717;BME280;4897;43.570;27.832;2023-02-13T10:54:21;100915.81;;;13.93;39.28
9717;BME280;4897;43.570;27.832;2023-02-13T10:56:58;100890.06;;;14.39;39.42
9717;BME280;4897;43.570;27.832;2023-02-13T10:59:38;100895.72;;;12.82;40.90
9717;BME280;4897;43.570;27.832;2023-02-13T11:02:20;100897.06;;;12.22;43.03
9717;BME280;4897;43.570;27.832;2023-02-13T11:04:51;100892.50;;;13.81;41.35
9717;BME280;4897;43.570;27.832;2023-02-13T11:07:22;100850.81;;;14.71;38.63
9717;BME280;4897;43.570;27.832;2023-02-13T11:09:53;100877.00;;;13.46;40.14
9717;BME280;4897;43.570;27.832;2023-02-13T11:12:26;100885.09;;;14.46;39.55
9717;BME280;4897;43.570;27.832;2023-02-13T11:14:55;100854.34;;;14.12;39.66
9717;BME280;4897;43.570;27.832;2023-02-13T11:17:23;100867.16;;;14.57;39.21
9717;BME280;4897;43.570;27.832;2023-02-13T11:19:54;100874.94;;;13.50;41.42
9717;BME280;4897;43.570;27.832;2023-02-13T11:22:29;100872.66;;;13.31;41.62
9717;BME280;4897;43.570;27.832;2023-02-13T11:25:00;100836.53;;;13.86;41.44
9717;BME280;4897;43.570;27.832;2023-02-13T11:27:31;100850.47;;;14.16;41.37
9717;BME280;4897;43.570;27.832;2023-02-13T11:30:01;100849.50;;;14.53;40.25
9717;BME280;4897;43.570;27.832;2023-02-13T11:32:29;100854.72;;;13.70;40.61
9717;BME280;4897;43.570;27.832;2023-02-13T11:34:59;100833.72;;;12.99;41.60
9717;BME280;4897;43.570;27.832;2023-02-13T11:37:42;100839.66;;;12.24;42.89
9717;BME280;4897;43.570;27.832;2023-02-13T11:40:28;100830.97;;;12.47;42.89
9717;BME280;4897;43.570;27.832;2023-02-13T11:42:55;100841.09;;;13.22;42.14
9717;BME280;4897;43.570;27.832;2023-02-13T11:45:24;100838.59;;;13.82;41.03
9717;BME280;4897;43.570;27.832;2023-02-13T11:47:53;100833.13;;;13.46;41.04
9717;BME280;4897;43.570;27.832;2023-02-13T11:50:25;100818.72;;;13.34;41.23
9717;BME280;4897;43.570;27.832;2023-02-13T11:52:55;100821.63;;;13.56;41.28
9717;BME280;4897;43.570;27.832;2023-02-13T11:55:29;100834.94;;;13.58;41.13
9717;BME280;4897;43.570;27.832;2023-02-13T11:57:58;100821.16;;;14.24;40.45
9717;BME280;4897;43.570;27.832;2023-02-13T12:00:36;100806.94;;;14.58;39.30
9717;BME280;4897;43.570;27.832;2023-02-13T12:03:27;100812.09;;;14.85;39.12
9717;BME280;4897;43.570;27.832;2023-02-13T12:06:12;100816.56;;;13.64;40.78
9717;BME280;4897;43.570;27.832;2023-02-13T12:08:41;100788.53;;;13.92;40.65
9717;BME280;4897;43.570;27.832;2023-02-13T12:11:19;100781.13;;;14.56;40.05
9717;BME280;4897;43.570;27.832;2023-02-13T12:13:47;100779.91;;;14.00;40.45
9717;BME280;4897;43.570;27.832;2023-02-13T12:16:22;100797.84;;;14.48;39.86
9717;BME280;4897;43.570;27.832;2023-02-13T12:18:55;100777.41;;;14.09;40.46
9717;BME280;4897;43.570;27.832;2023-02-13T12:21:35;100792.91;;;14.42;39.62
9717;BME280;4897;43.570;27.832;2023-02-13T12:24:13;100792.22;;;14.51;40.00
9717;BME280;4897;43.570;27.832;2023-02-13T12:26:50;100790.16;;;14.31;40.98
9717;BME280;4897;43.570;27.832;2023-02-13T12:29:39;100715.47;;;14.22;40.23
9717;BME280;4897;43.570;27.832;2023-02-13T12:32:17;100776.69;;;15.35;39.41
9717;BME280;4897;43.570;27.832;2023-02-13T12:38:01;100766.28;;;15.86;38.59
9717;BME280;4897;43.570;27.832;2023-02-13T12:40:38;100701.34;;;16.10;37.76
9717;BME280;4897;43.570;27.832;2023-02-13T12:46:11;100768.22;;;15.29;38.80
9717;BME280;4897;43.570;27.832;2023-02-13T12:48:46;100754.00;;;15.27;38.88
9717;BME280;4897;43.570;27.832;2023-02-13T12:51:33;100736.38;;;15.67;38.64
9717;BME280;4897;43.570;27.832;2023-02-13T12:54:27;100737.25;;;16.64;36.76
9717;BME280;4897;43.570;27.832;2023-02-13T12:57:05;100775.31;;;16.07;37.35
9717;BME280;4897;43.570;27.832;2023-02-13T12:59:46;100736.56;;;14.97;38.36
9717;BME280;4897;43.570;27.832;2023-02-13T13:02:43;100740.19;;;14.74;39.37
9717;BME280;4897;43.570;27.832;2023-02-13T13:05:26;100753.53;;;14.41;39.92
9717;BME280;4897;43.570;27.832;2023-02-13T13:08:09;100748.53;;;14.82;40.26
9717;BME280;4897;43.570;27.832;2023-02-13T13:10:53;100712.91;;;14.44;39.97
9717;BME280;4897;43.570;27.832;2023-02-13T13:13:34;100748.16;;;14.41;40.24
9717;BME280;4897;43.570;27.832;2023-02-13T13:16:08;100736.28;;;14.78;40.26
9717;BME280;4897;43.570;27.832;2023-02-13T13:18:50;100722.69;;;14.80;39.74
9717;BME280;4897;43.570;27.832;2023-02-13T13:21:31;100749.69;;;14.67;40.32
9717;BME280;4897;43.570;27.832;2023-02-13T13:24:08;100749.47;;;14.70;40.53
9717;BME280;4897;43.570;27.832;2023-02-13T13:26:42;100740.56;;;14.46;40.64
9717;BME280;4897;43.570;27.832;2023-02-13T13:29:14;100733.63;;;14.89;40.34
9717;BME280;4897;43.570;27.832;2023-02-13T13:31:45;100733.31;;;14.70;40.60
9717;BME280;4897;43.570;27.832;2023-02-13T13:34:20;100708.19;;;15.15;39.94
9717;BME280;4897;43.570;27.832;2023-02-13T13:36:52;100731.69;;;15.36;40.02